Time;durP1;ratioP1;P1;durP2;ratioP2;P2;SDS_P1;SDS_P2;PMS_P1;PMS_P2;Temp;Humidity;BMP_temperature;BMP_pressure;BME280_temperature;BME280_humidity;BME280_pressure;Samples;Min_cycle;Max_cycle;Signal;HPM_P1;HPM_P2
2022/06/14 00:12:22;;;;;;;3.20;2.10;;;20.30;54.50;;;20.72;39.51;99225.13;4937123;28;124813;-89
2022/06/14 00:15:09;;;;;;;2.73;1.90;;;20.20;54.60;;;20.70;39.52;99225.47;4934427;28;120208;-92
2022/06/14 00:21:18;;;;;;;3.00;2.20;;;20.20;54.90;;;20.64;39.91;99223.34;4917855;28;126671;-90
2022/06/14 00:27:27;;;;;;;2.77;2.00;;;20.10;55.20;;;20.56;39.83;99218.78;4918873;28;120405;-88
2022/06/14 00:33:35;;;;;;;3.13;2.00;;;20.00;55.50;;;20.51;39.94;99217.03;4919087;28;125220;-78
2022/06/14 00:40:05;;;;;;;3.00;1.90;;;20.00;55.90;;;20.44;40.05;99206.47;4923195;28;120384;-81
2022/06/14 00:46:22;;;;;;;4.13;2.33;;;19.90;56.20;;;20.39;40.61;99219.97;4938327;28;125217;-86
2022/06/14 00:52:42;;;;;;;2.47;2.00;;;19.80;56.50;;;20.29;40.61;99218.56;4941190;28;121348;-87
2022/06/14 00:59:28;;;;;;;3.50;2.20;;;19.80;56.60;;;20.12;41.06;99205.75;4941453;28;125181;-84
2022/06/14 01:06:06;;;;;;;4.40;1.80;;;19.60;56.90;;;20.04;41.13;99215.19;4935653;28;121652;-85
2022/06/14 01:12:20;;;;;;;2.93;1.97;;;19.50;57.20;;;19.99;41.29;99207.91;4921529;28;125265;-80
2022/06/14 01:22:10;;;;;;;3.53;2.20;;;19.40;57.60;;;19.92;41.62;99193.69;4922096;28;119988;-80
2022/06/14 01:28:24;;;;;;;5.50;2.23;;;19.40;58.00;;;19.88;41.70;99197.59;4921837;28;124713;-77
2022/06/14 01:34:37;;;;;;;2.80;1.93;;;19.40;58.30;;;19.82;41.88;99202.66;4921716;28;119975;-91
2022/06/14 01:41:06;;;;;;;4.10;2.30;;;19.30;58.60;;;19.77;42.21;99191.72;4902402;28;124821;-93
2022/06/14 01:47:25;;;;;;;3.50;2.23;;;19.30;58.90;;;19.72;42.32;99194.81;4941488;28;120412;-84
2022/06/14 01:53:53;;;;;;;3.33;2.30;;;19.20;59.10;;;19.65;42.41;99204.66;4906510;28;126189;-94
2022/06/14 02:00:17;;;;;;;3.23;2.20;;;19.10;59.30;;;19.59;42.51;99203.31;4899403;28;120239;-93
2022/06/14 02:06:48;;;;;;;4.40;2.07;;;19.10;59.60;;;19.55;42.66;99221.22;4901105;28;124723;-93
2022/06/14 02:12:48;;;;;;;5.93;2.30;;;19.00;59.80;;;19.51;42.75;99206.31;4946736;23;97695;-93
2022/06/14 02:19:37;;;;;;;4.37;2.30;;;19.00;60.10;;;19.45;43.02;99208.56;4901854;28;124612;-94
2022/06/14 02:25:57;;;;;;;3.43;2.50;;;18.90;60.40;;;19.39;43.34;99201.59;4901533;28;119519;-94
2022/06/14 02:36:33;;;;;;;3.60;2.40;;;18.80;60.70;;;19.24;43.44;99203.22;4901160;28;120368;-93
2022/06/14 02:46:34;;;;;;;2.97;2.60;;;18.70;61.00;;;19.14;43.54;99195.34;4824843;29;124769;-92
2022/06/14 02:52:53;;;;;;;3.20;2.13;;;18.60;61.20;;;19.09;43.60;99202.03;4825756;29;119524;-76
2022/06/14 02:59:12;;;;;;;2.50;2.30;;;18.60;61.40;;;19.02;43.77;99201.03;4825011;29;126161;-86
2022/06/14 03:05:44;;;;;;;3.77;2.20;;;18.50;61.60;;;18.94;43.87;99198.03;4825653;29;120991;-76
2022/06/14 03:37:01;;;;;;;2.30;2.10;;;18.20;63.20;;;18.72;44.69;99206.97;4900139;28;126022;-82
2022/06/14 03:47:19;;;;;;;2.53;2.33;;;18.20;63.60;;;18.61;45.02;99201.09;4900717;28;124992;-77
2022/06/14 03:54:24;;;;;;;3.97;2.53;;;18.10;63.80;;;18.58;44.96;99199.00;4900829;28;120401;-82
2022/06/14 04:00:53;;;;;;;3.83;3.00;;;18.00;64.00;;;18.59;44.86;99197.00;4900542;28;125085;-92
2022/06/14 04:12:28;;;;;;;5.17;2.90;;;18.10;64.70;;;18.71;45.17;99200.56;5586194;23;98812;-90
2022/06/14 04:19:15;;;;;;;2.50;2.27;;;18.20;64.90;;;18.72;45.15;99198.59;4919486;28;120338;-78
2022/06/14 04:25:44;;;;;;;3.70;2.80;;;16.20;63.40;;;18.71;45.34;99194.16;4860895;28;125136;-78
2022/06/14 04:28:31;;;;;;;5.97;2.53;;;17.70;65.20;;;18.75;45.48;99211.91;4842963;28;126149;-86
2022/06/14 04:34:55;;;;;;;6.33;3.50;;;18.20;66.00;;;18.76;45.83;99207.94;4861130;28;119385;-86
2022/06/14 04:38:06;;;;;;;7.93;3.50;;;18.20;66.20;;;18.75;45.83;99201.53;4842081;28;123835;-95
2022/06/14 04:41:29;;;;;;;4.17;3.10;;;18.20;66.40;;;18.78;45.84;99211.19;4842424;28;124439;-89
2022/06/14 04:48:06;;;;;;;6.10;3.60;;;18.20;66.90;;;18.79;46.01;99206.41;4842485;28;120072;-90
2022/06/14 04:54:33;;;;;;;5.40;3.40;;;18.20;67.50;;;18.71;46.59;99203.38;4841582;28;124728;-85
2022/06/14 05:00:54;;;;;;;6.17;3.50;;;18.10;67.80;;;18.67;46.68;99199.69;4910252;28;119990;-80
2022/06/14 05:13:58;;;;;;;5.80;3.43;;;18.30;68.90;;;18.92;46.69;99197.59;4915320;28;121019;-92
2022/06/14 05:16:48;;;;;;;3.30;2.70;;;18.30;69.00;;;18.98;46.75;99198.94;4893159;28;124807;-93
2022/06/14 05:23:04;;;;;;;5.83;3.50;;;18.40;69.10;;;19.05;46.64;99197.50;4898473;28;120456;-93
2022/06/14 05:29:45;;;;;;;6.30;3.77;;;18.50;69.20;;;19.03;46.74;99205.47;4935325;28;125101;-93
2022/06/14 05:32:50;;;;;;;4.40;3.57;;;18.40;69.20;;;19.05;46.59;99203.09;4920360;28;123660;-92
2022/06/14 05:39:31;;;;;;;5.23;3.93;;;18.50;69.50;;;19.07;46.69;99201.56;4901558;28;119964;-93
2022/06/14 05:42:12;;;;;;;5.87;4.07;;;18.50;69.50;;;19.13;46.50;99197.34;4894683;28;123340;-90
2022/06/14 05:44:45;;;;;;;6.27;3.80;;;18.50;69.50;;;19.17;46.55;99194.63;4890842;28;124521;-93
2022/06/14 05:47:29;;;;;;;10.20;4.33;;;18.60;69.70;;;19.22;46.38;99196.34;4907230;28;119765;-94
2022/06/14 05:50:01;;;;;;;10.03;5.33;;;18.60;69.60;;;19.23;46.24;99197.97;4896834;28;118922;-94
2022/06/14 05:52:55;;;;;;;7.37;4.43;;;18.60;69.60;;;19.24;46.22;99200.44;4866680;28;124926;-94
2022/06/14 05:55:56;;;;;;;5.53;4.10;;;18.60;69.70;;;19.26;46.29;99203.66;4907439;28;124493;-94
2022/06/14 05:58:30;;;;;;;5.67;3.80;;;18.70;69.40;;;19.32;46.01;99196.63;4896926;28;118597;-95
2022/06/14 06:05:15;;;;;;;7.40;3.80;;;18.70;68.70;;;19.42;45.46;99196.09;4901610;28;124796;-92
2022/06/14 06:08:09;;;;;;;6.03;3.67;;;18.80;68.70;;;19.48;45.51;99198.59;4899111;28;122825;-93
2022/06/14 06:14:39;;;;;;;7.00;3.63;;;18.90;68.50;;;19.66;45.40;99191.47;4919996;28;120529;-90
2022/06/14 06:17:14;;;;;;;5.70;3.30;;;19.00;68.50;;;19.76;45.31;99193.72;4908802;28;125069;-94
2022/06/14 06:19:53;;;;;;;6.33;3.40;;;19.20;68.50;;;19.85;44.95;99188.75;4868222;28;123771;-93
2022/06/14 06:23:04;;;;;;;15.37;4.67;;;19.20;68.10;;;19.93;44.68;99194.50;4881824;28;118783;-94
2022/06/14 06:25:41;;;;;;;7.33;3.77;;;19.30;67.90;;;19.98;44.17;99183.81;4868211;28;117943;-92
2022/06/14 06:28:29;;;;;;;8.63;4.10;;;19.30;67.60;;;20.05;44.49;99194.41;4887044;28;123933;-93
2022/06/14 06:35:16;;;;;;;6.50;3.40;;;19.50;67.30;;;20.18;43.91;99184.66;4873727;29;119367;-95
2022/06/14 06:41:50;;;;;;;3.23;2.73;;;19.60;67.10;;;20.46;44.03;99180.84;4884764;28;124600;-93
2022/06/14 06:44:50;;;;;;;4.00;2.97;;;19.70;67.20;;;20.57;43.89;99190.31;4890225;28;124418;-85
2022/06/14 06:47:40;;;;;;;4.90;3.30;;;19.80;67.20;;;20.69;43.51;99187.38;4887004;28;120147;-94
2022/06/14 06:50:23;;;;;;;6.50;3.90;;;20.00;67.10;;;20.81;43.57;99196.81;4877617;28;118354;-93
2022/06/14 06:53:12;;;;;;;6.13;3.60;;;20.10;67.10;;;20.88;43.59;99186.53;4870962;28;123769;-94
2022/06/14 06:56:22;;;;;;;6.17;3.27;;;20.20;66.80;;;20.95;43.41;99183.88;4884970;28;123674;-91
2022/06/14 06:59:39;;;;;;;10.90;4.33;;;20.30;66.70;;;21.01;43.21;99187.19;4852953;29;117180;-93
2022/06/14 07:02:44;;;;;;;5.93;3.23;;;20.30;66.30;;;21.12;43.10;99178.94;4859127;28;118116;-92
2022/06/14 07:05:52;;;;;;;5.50;3.10;;;20.40;66.40;;;21.25;42.78;99166.34;4875562;28;121941;-93
2022/06/14 07:08:41;;;;;;;5.27;2.87;;;20.50;66.40;;;21.40;42.70;99173.03;4858303;28;123460;-95
2022/06/14 07:12:01;;;;;;;6.37;4.30;;;20.60;66.20;;;21.48;42.36;99171.94;4864337;28;119692;-93
2022/06/14 07:14:57;;;;;;;5.13;3.60;;;20.80;65.70;;;21.51;42.07;99167.56;4871220;28;119929;-91
2022/06/14 07:17:39;;;;;;;6.70;3.60;;;20.80;65.60;;;21.61;42.34;99169.75;4852407;28;124747;-92
2022/06/14 07:20:28;;;;;;;6.00;3.17;;;20.90;65.60;;;21.76;42.17;99167.94;4867396;28;123566;-91
2022/06/14 07:23:07;;;;;;;6.43;3.70;;;21.00;65.60;;;21.90;41.28;99173.81;4851117;28;119681;-90
2022/06/14 07:25:47;;;;;;;4.67;3.43;;;21.10;65.10;;;21.99;41.49;99176.34;4839907;28;118686;-92
2022/06/14 07:28:43;;;;;;;5.80;3.90;;;21.20;64.70;;;22.05;41.31;99172.81;4861018;28;124549;-89
2022/06/14 07:31:39;;;;;;;8.63;3.90;;;21.30;64.60;;;22.14;41.26;99183.81;4859564;28;123850;-91
2022/06/14 07:34:08;;;;;;;5.13;3.60;;;21.40;64.20;;;22.20;41.02;99175.88;4864539;28;119747;-90
2022/06/14 07:37:12;;;;;;;7.50;3.50;;;21.40;63.90;;;22.19;40.80;99179.84;4855890;28;117304;-92
2022/06/14 07:40:06;;;;;;;7.03;4.63;;;21.50;63.70;;;22.21;40.90;99178.28;4841490;28;123873;-90
2022/06/14 07:42:57;;;;;;;4.90;3.30;;;21.50;63.40;;;22.19;40.65;99166.63;4876265;28;123447;-90
2022/06/14 07:45:36;;;;;;;7.03;4.20;;;21.50;63.20;;;22.26;40.50;99168.69;4860773;28;119683;-92
2022/06/14 07:48:46;;;;;;;6.07;3.70;;;21.50;63.10;;;22.32;40.68;99172.78;4849672;28;118596;-90
2022/06/14 07:51:31;;;;;;;12.17;4.50;;;21.60;63.00;;;22.36;40.20;99173.66;4829234;29;125241;-92
2022/06/14 07:54:28;;;;;;;7.67;4.20;;;21.60;62.30;;;22.39;39.83;99167.25;4810615;29;123624;-91
2022/06/14 07:57:14;;;;;;;4.67;3.40;;;21.70;62.20;;;22.49;40.07;99177.84;4828940;29;119395;-91
2022/06/14 08:03:36;;;;;;;5.40;4.13;;;21.80;61.80;;;22.54;39.87;99168.25;4817531;29;123640;-90
2022/06/14 08:06:12;;;;;;;4.90;3.27;;;21.90;62.30;;;22.66;39.60;99159.53;4827263;29;123850;-91
2022/06/14 08:08:44;;;;;;;7.60;3.53;;;22.00;61.70;;;22.76;39.16;99160.06;4824527;29;119952;-90
2022/06/14 08:11:34;;;;;;;5.40;3.30;;;22.00;61.10;;;22.83;38.67;99169.38;4828076;29;119109;-92
2022/06/14 08:14:14;;;;;;;5.57;3.13;;;22.10;60.80;;;22.94;39.05;99161.88;4811889;29;124130;-90
2022/06/14 08:16:47;;;;;;;4.50;2.90;;;22.20;60.70;;;23.05;38.59;99170.47;4811528;29;123059;-89
2022/06/14 08:19:25;;;;;;;9.10;3.10;;;22.30;60.70;;;23.14;38.07;99164.50;4822527;29;118242;-91
2022/06/14 08:22:00;;;;;;;7.37;3.20;;;22.40;59.90;;;23.17;37.58;99162.91;4810034;29;116876;-94
2022/06/14 08:24:41;;;;;;;3.67;2.63;;;22.50;58.70;;;23.18;37.71;99162.50;4804930;29;124211;-92
2022/06/14 08:27:35;;;;;;;5.60;3.50;;;22.50;58.60;;;23.18;37.37;99168.16;4816725;28;122757;-93
2022/06/14 08:30:08;;;;;;;4.67;3.60;;;22.60;57.80;;;23.24;37.01;99160.16;4830718;29;117469;-94
2022/06/14 08:32:49;;;;;;;4.20;3.07;;;22.60;58.00;;;23.32;37.24;99170.28;4870888;28;119316;-93
2022/06/14 08:35:44;;;;;;;4.70;3.33;;;22.60;57.80;;;23.36;36.94;99162.69;4869926;28;122909;-95
2022/06/14 08:38:24;;;;;;;5.67;3.37;;;22.70;57.20;;;23.41;36.75;99164.34;4862193;28;124400;-93
2022/06/14 08:41:23;;;;;;;4.23;3.13;;;22.70;57.30;;;23.44;37.05;99157.91;4868142;28;118792;-94
2022/06/14 08:43:59;;;;;;;3.10;2.63;;;22.80;57.40;;;23.53;36.94;99152.75;4889136;28;119144;-95
2022/06/14 08:46:41;;;;;;;10.93;4.13;;;22.80;57.40;;;23.57;36.47;99156.41;4903389;28;124076;-95
2022/06/14 08:49:34;;;;;;;8.40;3.87;;;22.90;57.10;;;23.59;36.59;99154.00;4864588;28;123839;-93
2022/06/14 08:52:51;;;;;;;9.23;4.20;;;22.90;56.80;;;23.60;36.30;99139.50;4891445;28;120145;-95
2022/06/14 08:56:04;;;;;;;5.83;3.07;;;23.00;56.50;;;23.63;36.12;99146.38;4861618;28;118887;-93
2022/06/14 08:59:14;;;;;;;8.60;3.40;;;23.00;56.30;;;23.64;36.08;99136.69;4863201;28;124299;-92
2022/06/14 09:02:27;;;;;;;21.10;5.33;;;23.00;55.70;;;23.64;35.40;99139.50;4874062;28;123284;-92
2022/06/14 09:05:25;;;;;;;12.67;4.47;;;23.00;54.90;;;23.59;35.45;99146.34;4847637;28;119378;-92
2022/06/14 09:08:03;;;;;;;6.70;3.53;;;23.00;54.70;;;23.63;35.67;99143.56;4868792;28;119843;-93
2022/06/14 09:10:57;;;;;;;5.33;3.50;;;23.10;55.00;;;23.67;35.48;99132.28;4864038;28;123450;-94
2022/06/14 09:13:39;;;;;;;9.17;3.90;;;23.10;54.90;;;23.67;35.21;99132.28;4873681;28;123748;-93
2022/06/14 09:16:38;;;;;;;8.23;4.10;;;23.10;54.40;;;23.65;35.46;99115.75;4880924;28;118509;-95
2022/06/14 09:19:35;;;;;;;7.97;3.30;;;23.10;54.50;;;23.70;35.47;99117.41;4876155;28;118048;-96
2022/06/14 09:22:43;;;;;;;4.57;3.40;;;23.10;54.50;;;23.73;35.53;99111.81;4877000;28;123895;-95
2022/06/14 09:25:45;;;;;;;3.83;2.80;;;23.10;54.60;;;23.80;35.19;99105.38;4861188;28;123669;-95
2022/06/14 09:28:56;;;;;;;4.10;2.73;;;23.20;54.60;;;23.85;35.36;99099.38;4843528;28;117045;-93
2022/06/14 09:31:39;;;;;;;2.77;2.47;;;23.20;54.60;;;23.90;35.26;99095.38;4859516;28;117975;-94
2022/06/14 09:35:04;;;;;;;6.77;3.23;;;23.30;54.40;;;23.91;35.06;99102.63;4868450;28;124619;-95
2022/06/14 09:38:15;;;;;;;5.80;3.00;;;23.30;53.90;;;23.88;34.84;99098.59;4853517;28;124811;-93
2022/06/14 09:41:16;;;;;;;3.37;2.60;;;23.30;53.40;;;23.90;35.06;99084.91;4848978;28;119425;-91
2022/06/14 09:44:26;;;;;;;5.30;2.87;;;23.30;53.70;;;23.94;35.01;99107.50;4876309;28;117942;-94
2022/06/14 09:47:13;;;;;;;5.67;3.37;;;23.40;53.70;;;24.00;35.04;99092.59;4863499;28;124835;-94
2022/06/14 09:50:04;;;;;;;6.13;2.87;;;23.40;53.80;;;24.06;34.75;99087.38;4864681;28;123062;-92
2022/06/14 09:53:10;;;;;;;3.03;2.70;;;23.40;53.70;;;24.11;34.44;99095.47;4864374;28;118575;-93
2022/06/14 09:56:16;;;;;;;3.23;2.77;;;23.50;53.40;;;24.13;34.53;99092.28;4873180;28;120060;-94
2022/06/14 09:59:39;;;;;;;6.40;3.30;;;23.50;53.20;;;24.09;34.08;99075.31;4865037;28;124050;-94
2022/06/14 10:02:51;;;;;;;4.30;3.03;;;23.50;52.30;;;24.04;34.16;99072.84;4816600;29;123453;-91
2022/06/14 10:05:51;;;;;;;5.03;3.30;;;23.50;52.20;;;24.06;34.05;99076.09;4800213;29;120312;-94
2022/06/14 10:08:59;;;;;;;5.73;2.80;;;23.50;52.30;;;24.11;34.26;99067.25;4792765;29;119188;-94
2022/06/14 10:12:02;;;;;;;3.73;2.40;;;23.60;52.40;;;24.18;33.95;99069.28;4790941;29;123982;-90
2022/06/14 10:14:47;;;;;;;6.57;3.10;;;23.60;52.10;;;24.26;33.92;99065.31;4794088;29;124277;-93
2022/06/14 10:17:41;;;;;;;2.93;2.63;;;23.60;51.80;;;24.31;33.80;99052.78;4794883;29;119800;-94
2022/06/14 10:21:11;;;;;;;4.47;2.40;;;23.70;51.80;;;24.36;33.58;99060.88;4821221;29;119730;-92
2022/06/14 10:24:04;;;;;;;4.97;2.70;;;23.70;51.60;;;24.44;33.62;99062.53;4751236;29;123765;-93
2022/06/14 10:30:28;;;;;;;6.10;3.57;;;23.90;51.40;;;24.50;33.03;99054.47;4756457;29;119899;-92
2022/06/14 10:33:32;;;;;;;4.80;3.27;;;23.90;51.00;;;24.51;33.04;99053.28;4730399;29;117735;-91
2022/06/14 10:36:28;;;;;;;8.43;3.73;;;23.90;50.50;;;24.51;32.82;99050.47;4744835;29;123392;-93
2022/06/14 10:39:31;;;;;;;5.00;2.93;;;24.00;50.40;;;24.54;33.14;99052.50;4757956;29;123596;-92
2022/06/14 10:42:38;;;;;;;4.90;3.07;;;24.00;50.60;;;24.59;33.30;99052.91;4810409;29;119164;-90
2022/06/14 10:45:42;;;;;;;5.17;3.40;;;24.00;50.80;;;24.67;33.09;99048.88;4797610;29;120972;-89
2022/06/14 10:48:23;;;;;;;6.50;2.93;;;24.10;51.00;;;24.76;33.17;99048.47;4768636;29;124326;-88
2022/06/14 10:51:27;;;;;;;3.53;2.70;;;24.20;51.10;;;24.81;33.08;99044.44;4797799;29;124262;-90
2022/06/14 10:54:24;;;;;;;3.60;2.40;;;24.30;51.00;;;24.90;32.95;99039.19;4759180;29;118431;-88
2022/06/14 10:56:59;;;;;;;6.30;2.70;;;24.30;50.90;;;24.97;32.84;99033.53;4769986;29;119242;-89
2022/06/14 10:59:45;;;;;;;3.10;2.40;;;24.30;50.40;;;24.97;32.33;99032.75;4856443;28;123391;-90
2022/06/14 11:02:33;;;;;;;3.17;2.43;;;24.40;49.90;;;24.98;32.82;99023.84;4856936;28;123104;-88
2022/06/14 11:05:18;;;;;;;5.13;3.00;;;24.40;50.20;;;25.04;32.37;99025.06;4864678;28;120265;-88
2022/06/14 11:08:22;;;;;;;3.23;2.73;;;24.50;50.20;;;25.07;32.13;99024.25;4855608;28;119306;-87
2022/06/14 11:11:11;;;;;;;5.87;3.20;;;24.50;49.50;;;25.13;32.12;99024.66;4866636;28;124349;-88
2022/06/14 11:14:03;;;;;;;4.40;2.70;;;24.60;49.50;;;25.20;31.98;99006.88;4857032;28;123116;-88
2022/06/14 11:16:57;;;;;;;6.57;3.13;;;24.60;49.50;;;25.27;31.88;99012.53;4852485;28;119235;-88
2022/06/14 11:19:47;;;;;;;3.40;2.80;;;24.70;49.40;;;25.37;32.31;99017.38;4861739;28;118368;-88
2022/06/14 11:22:40;;;;;;;9.20;3.07;;;24.70;49.40;;;25.47;32.14;99019.38;4864333;28;126073;-90
2022/06/14 11:25:58;;;;;;;4.30;2.50;;;24.90;49.30;;;25.57;32.08;99014.91;4857608;28;124389;-89
2022/06/14 11:28:58;;;;;;;5.77;3.00;;;25.00;49.30;;;25.70;31.48;99006.78;4850551;28;119356;-90
2022/06/14 11:31:47;;;;;;;4.20;2.60;;;25.10;49.10;;;25.79;31.80;99004.31;4865439;28;118996;-92
2022/06/14 11:34:51;;;;;;;6.43;3.13;;;25.10;48.90;;;25.88;31.35;99001.88;4853070;28;124316;-87
2022/06/14 11:37:57;;;;;;;3.57;2.60;;;25.20;48.50;;;25.95;31.66;99001.88;4861503;28;124216;-88
2022/06/14 11:40:28;;;;;;;6.13;3.37;;;25.40;48.60;;;26.06;30.80;99009.47;4869425;28;119392;-87
2022/06/14 11:43:04;;;;;;;5.93;2.50;;;25.40;48.20;;;26.14;31.01;98994.06;4876248;28;118792;-86
2022/06/14 11:45:51;;;;;;;5.00;2.70;;;25.50;48.20;;;26.26;31.17;98998.47;4866010;28;124311;-87
2022/06/14 11:48:43;;;;;;;4.90;2.90;;;25.60;48.30;;;26.38;30.75;98998.81;4858988;28;122979;-90
2022/06/14 11:51:35;;;;;;;3.27;2.50;;;25.70;48.20;;;26.49;30.55;98995.91;4848235;28;117763;-90
2022/06/14 11:54:37;;;;;;;4.70;2.93;;;25.90;47.40;;;26.52;29.58;98995.09;4862082;28;119046;-88
2022/06/14 11:57:29;;;;;;;2.90;2.27;;;25.90;46.30;;;26.56;29.39;98992.22;4858843;28;122831;-89
2022/06/14 12:00:52;;;;;;;4.50;2.87;;;26.00;45.90;;;26.61;29.71;98984.09;4847302;28;123902;-88
2022/06/14 12:03:39;;;;;;;2.97;2.40;;;26.00;45.80;;;26.68;29.59;98991.75;4812773;28;120066;-89
2022/06/14 12:06:38;;;;;;;4.40;2.60;;;26.00;45.80;;;26.74;29.01;98980.75;4856443;28;119794;-87
2022/06/14 12:09:55;;;;;;;4.07;2.40;;;26.10;45.30;;;26.87;29.86;98979.03;4843460;28;124133;-88
2022/06/14 12:13:03;;;;;;;3.60;2.23;;;26.20;45.80;;;27.01;29.17;98973.22;4844199;28;123620;-90
2022/06/14 12:16:02;;;;;;;4.73;2.87;;;26.30;45.10;;;27.16;29.05;98965.34;4831933;28;119583;-87
2022/06/14 12:18:34;;;;;;;4.83;2.87;;;26.50;44.80;;;27.28;28.82;98956.34;4854687;28;119134;-89
2022/06/14 12:21:31;;;;;;;4.50;2.47;;;26.60;45.30;;;27.41;28.63;98955.81;4833006;29;123114;-89
2022/06/14 12:24:08;;;;;;;4.70;3.40;;;26.70;44.60;;;27.49;27.08;98966.66;4855328;28;122995;-90
2022/06/14 12:26:59;;;;;;;4.33;2.70;;;26.80;42.50;;;27.49;28.13;98955.31;4843486;28;119727;-88
2022/06/14 12:29:32;;;;;;;7.53;2.60;;;26.90;43.10;;;27.60;27.28;98960.06;4858300;28;118966;-87
2022/06/14 12:32:19;;;;;;;5.60;3.43;;;26.90;42.90;;;27.70;27.36;98959.94;4850192;28;124011;-90
2022/06/14 12:35:06;;;;;;;3.60;2.40;;;27.00;42.90;;;27.77;27.93;98954.16;4852317;28;122443;-90
2022/06/14 12:37:48;;;;;;;6.33;3.17;;;27.20;42.90;;;27.86;27.56;98955.69;4850923;28;118382;-89
2022/06/14 12:41:07;;;;;;;3.80;2.67;;;27.20;42.50;;;27.98;27.59;98952.28;4847224;28;119074;-88
2022/06/14 12:44:12;;;;;;;3.70;2.27;;;27.40;42.90;;;28.11;26.98;98941.16;4845220;28;123892;-91
2022/06/14 12:46:44;;;;;;;2.70;2.20;;;27.50;42.30;;;28.23;27.00;98934.09;4864283;28;124008;-90
2022/06/14 12:49:27;;;;;;;3.37;2.30;;;27.60;42.40;;;28.38;27.34;98922.06;4863491;28;119395;-88
2022/06/14 12:52:25;;;;;;;4.40;2.37;;;27.70;42.30;;;28.48;26.70;98926.00;4857523;28;118667;-90
2022/06/14 12:55:23;;;;;;;3.70;2.17;;;27.80;42.10;;;28.58;27.10;98922.16;4854154;28;126875;-85
2022/06/14 12:58:14;;;;;;;3.60;2.00;;;27.90;42.20;;;28.73;26.76;98916.25;4859595;28;124794;-86
2022/06/14 13:00:46;;;;;;;4.20;2.80;;;28.00;41.90;;;28.81;26.48;98906.34;4863722;28;120664;-85
2022/06/14 13:03:54;;;;;;;11.20;3.70;;;28.10;42.10;;;28.79;26.26;98908.81;4851099;28;119711;-85
2022/06/14 13:06:53;;;;;;;5.30;2.60;;;28.20;41.00;;;28.89;26.50;98907.03;4834472;28;124383;-88
2022/06/14 13:09:45;;;;;;;3.27;2.50;;;28.20;41.30;;;29.00;26.26;98902.75;4864990;28;123051;-87
2022/06/14 13:12:32;;;;;;;3.13;2.33;;;28.30;41.10;;;29.13;26.36;98894.41;4856626;28;118406;-87
2022/06/14 13:15:16;;;;;;;4.20;2.37;;;28.50;41.00;;;29.25;26.19;98892.94;4848689;28;119600;-87
2022/06/14 13:18:18;;;;;;;2.77;2.13;;;28.60;40.50;;;29.34;25.95;98895.22;4863276;28;124030;-87
2022/06/14 13:21:00;;;;;;;4.20;2.40;;;28.70;40.50;;;29.45;25.93;98888.06;4863028;28;123110;-87
2022/06/14 13:23:52;;;;;;;3.60;2.33;;;28.80;40.10;;;29.56;25.31;98885.00;4845291;28;119356;-87
2022/06/14 13:26:49;;;;;;;4.27;2.47;;;28.90;39.80;;;29.62;25.28;98882.44;4863729;28;118896;-87
2022/06/14 13:29:33;;;;;;;4.27;2.60;;;29.00;39.40;;;29.64;25.29;98871.44;4854625;28;124050;-89
2022/06/14 13:32:16;;;;;;;3.80;2.20;;;29.00;39.20;;;29.63;25.15;98872.63;4846628;28;123817;-89
2022/06/14 13:35:01;;;;;;;2.90;2.20;;;29.00;39.00;;;29.71;25.35;98871.28;4845593;28;119374;-88
2022/06/14 13:37:48;;;;;;;5.30;2.47;;;29.10;39.40;;;29.82;25.10;98871.84;4851920;28;119008;-89
2022/06/14 13:40:31;;;;;;;2.63;2.27;;;29.20;39.00;;;29.92;25.16;98879.34;4856027;28;123664;-88
2022/06/14 13:43:17;;;;;;;4.40;2.47;;;29.20;38.80;;;30.04;24.90;98872.16;4861317;28;123984;-87
2022/06/14 13:46:01;;;;;;;3.30;2.57;;;29.40;39.00;;;30.18;24.70;98871.00;4860477;28;119426;-86
2022/06/14 13:49:01;;;;;;;3.60;2.87;;;29.50;38.90;;;30.29;24.60;98871.56;4852501;28;118945;-87
2022/06/14 13:51:40;;;;;;;3.90;2.37;;;29.60;38.80;;;30.40;25.07;98864.81;4851550;28;124138;-89
2022/06/14 13:54:37;;;;;;;3.63;2.23;;;29.70;38.70;;;30.51;25.04;98862.50;4845626;28;123724;-89
2022/06/14 13:57:33;;;;;;;2.60;2.40;;;29.90;38.60;;;30.59;24.12;98878.16;4844530;28;120304;-86
2022/06/14 14:00:18;;;;;;;2.60;2.00;;;29.90;37.60;;;30.64;24.37;98874.78;4849853;28;119985;-89
2022/06/14 14:03:12;;;;;;;3.03;2.33;;;30.00;37.80;;;30.72;24.10;98853.38;4842276;28;123131;-88
2022/06/14 14:05:49;;;;;;;2.80;1.93;;;29.30;36.90;;;30.81;23.56;98845.00;4844969;28;123250;-86
2022/06/14 14:08:23;;;;;;;2.83;1.60;;;30.20;37.30;;;30.90;24.05;98854.97;4848915;28;119255;-87
2022/06/14 14:11:18;;;;;;;2.20;1.93;;;30.20;37.20;;;30.95;23.49;98858.09;4840124;28;118337;-86
2022/06/14 14:14:16;;;;;;;2.20;1.60;;;30.40;37.10;;;30.99;23.51;98849.41;4860700;28;124438;-89
2022/06/14 14:17:11;;;;;;;2.40;2.03;;;30.40;36.90;;;31.08;23.89;98843.06;4849224;28;123838;-89
2022/06/14 14:19:53;;;;;;;3.23;2.17;;;30.50;36.90;;;31.16;23.44;98836.69;4846730;28;120602;-86
2022/06/14 14:22:53;;;;;;;3.43;2.43;;;30.50;36.00;;;31.16;22.78;98844.44;4861001;28;118191;-86
2022/06/14 14:25:33;;;;;;;5.47;2.80;;;30.50;35.60;;;31.19;22.70;98832.94;4861538;28;123970;-86
2022/06/14 14:28:18;;;;;;;4.00;2.17;;;30.60;35.20;;;31.23;23.16;98835.69;4850025;28;123925;-87
2022/06/14 14:31:05;;;;;;;5.03;2.83;;;30.60;35.50;;;31.31;22.79;98830.56;4853060;28;119654;-87
2022/06/14 14:33:59;;;;;;;2.20;2.00;;;30.60;34.90;;;31.36;22.60;98822.25;4846095;28;118947;-86
2022/06/14 14:36:25;;;;;;;3.10;2.20;;;30.80;35.30;;;31.47;22.76;98827.66;4838680;28;122417;-86
2022/06/14 14:39:04;;;;;;;1.97;1.57;;;30.80;35.00;;;31.54;22.97;98821.72;4860028;28;124023;-85
2022/06/14 14:41:41;;;;;;;4.73;2.37;;;30.90;35.20;;;31.63;22.86;98823.94;4850244;28;119223;-85
2022/06/14 14:44:24;;;;;;;2.90;2.20;;;31.00;35.00;;;31.71;22.56;98818.78;4852683;28;118178;-86
2022/06/14 14:46:59;;;;;;;3.60;2.33;;;31.10;35.20;;;31.84;22.68;98817.53;4845298;28;123720;-85
2022/06/14 14:49:51;;;;;;;2.80;1.87;;;31.10;35.00;;;31.97;22.68;98820.41;4850979;28;123910;-85
2022/06/14 14:52:34;;;;;;;3.77;2.37;;;31.30;34.90;;;32.09;21.65;98813.09;4838492;28;119878;-87
2022/06/14 14:55:25;;;;;;;3.33;2.07;;;31.40;33.60;;;32.16;21.57;98810.00;4849330;28;119939;-85
2022/06/14 14:58:01;;;;;;;4.10;2.30;;;31.50;34.00;;;32.27;21.63;98810.44;4845819;28;124390;-86
2022/06/14 15:07:28;;;;;;;3.17;1.90;;;31.80;33.40;;;32.67;21.81;98786.22;4856825;28;119658;-87
2022/06/14 15:10:22;;;;;;;3.07;2.30;;;32.00;33.70;;;32.71;20.66;98784.03;4863360;28;124249;-87
2022/06/14 15:12:56;;;;;;;2.70;1.90;;;32.10;31.90;;;32.75;20.31;98778.97;4851459;28;124241;-87
2022/06/14 15:15:29;;;;;;;2.20;1.67;;;32.10;31.80;;;32.82;20.71;98781.56;4852149;28;119773;-86
2022/06/14 15:21:03;;;;;;;2.33;2.13;;;32.30;31.90;;;33.09;20.52;98783.06;4855492;28;124735;-87
2022/06/14 15:23:46;;;;;;;2.93;2.03;;;32.40;31.80;;;33.18;20.69;98777.41;4849225;28;124144;-87
2022/06/14 15:26:25;;;;;;;2.00;1.60;;;32.50;31.80;;;33.32;19.80;98782.59;4849123;28;119003;-86
2022/06/14 15:28:59;;;;;;;2.90;1.90;;;32.60;31.80;;;33.34;20.22;98777.19;4851617;28;119420;-86
2022/06/14 15:31:44;;;;;;;2.27;1.80;;;32.60;31.70;;;33.44;20.62;98772.31;4844874;28;123819;-86
2022/06/14 15:34:21;;;;;;;4.13;2.10;;;32.70;32.00;;;33.56;20.16;98765.72;4853220;28;124233;-85
2022/06/14 15:36:53;;;;;;;2.07;1.60;;;32.90;31.30;;;33.64;20.06;98761.31;4859475;28;119315;-87
2022/06/14 15:39:31;;;;;;;2.43;1.70;;;32.70;31.00;;;33.70;19.85;98755.75;4856328;28;118665;-87
2022/06/14 15:42:26;;;;;;;2.00;1.40;;;33.00;31.00;;;33.77;19.79;98764.06;4845498;28;124273;-87
2022/06/14 15:44:54;;;;;;;2.20;1.80;;;33.10;30.50;;;33.88;19.27;98752.94;4865740;28;123508;-86
2022/06/14 15:47:41;;;;;;;3.23;1.80;;;33.20;30.20;;;33.94;19.48;98749.47;4850899;28;120239;-86
2022/06/14 15:50:36;;;;;;;3.20;2.10;;;33.30;30.10;;;34.00;19.03;98747.56;4850400;28;120052;-87